Time;durP1;ratioP1;P1;durP2;ratioP2;P2;SDS_P1;SDS_P2;PMS_P1;PMS_P2;Temp;Humidity;BMP_temperature;BMP_pressure;BME280_temperature;BME280_humidity;BME280_pressure;Samples;Min_cycle;Max_cycle;Signal;HPM_P1;HPM_P2
2022/04/14 00:01:18;;;;;;;59.58;21.65;;;;;;;11.96;77.71;102094.84;5100901;28;20277;-80
2022/04/14 00:03:43;;;;;;;56.33;21.63;;;;;;;11.95;77.44;102089.63;5082256;28;20067;-80
2022/04/14 00:06:09;;;;;;;49.50;21.13;;;;;;;11.94;77.52;102090.53;5089902;28;20082;-80
2022/04/14 00:08:34;;;;;;;51.05;20.10;;;;;;;11.93;77.10;102096.69;5099811;28;20062;-80
2022/04/14 00:10:59;;;;;;;46.85;18.50;;;;;;;11.89;77.13;102086.22;5090443;28;20015;-80
2022/04/14 00:13:25;;;;;;;44.80;17.67;;;;;;;11.89;77.31;102090.63;5087574;22;20039;-79
2022/04/14 00:15:50;;;;;;;44.55;18.65;;;;;;;11.88;77.22;102088.91;5086495;28;20040;-79
2022/04/14 00:18:16;;;;;;;52.63;18.63;;;;;;;11.86;77.22;102090.69;5047655;28;20040;-79
2022/04/14 00:20:42;;;;;;;46.42;18.88;;;;;;;11.84;77.30;102084.63;5073119;28;20324;-79
2022/04/14 00:23:07;;;;;;;51.17;19.13;;;;;;;11.81;77.08;102084.72;5063657;28;20223;-79
2022/04/14 00:25:32;;;;;;;47.38;18.25;;;;;;;11.79;77.34;102081.25;5081923;28;20099;-79
2022/04/14 00:27:58;;;;;;;40.75;15.75;;;;;;;11.77;77.14;102083.06;5084496;28;20028;-79
2022/04/14 00:30:23;;;;;;;33.45;13.77;;;;;;;11.76;77.58;102078.72;5064153;28;20032;-78
2022/04/14 00:32:49;;;;;;;31.17;12.68;;;;;;;11.74;77.33;102073.50;5079315;28;20135;-79
2022/04/14 00:35:14;;;;;;;24.13;12.02;;;;;;;11.72;77.36;102072.69;5079181;28;20035;-78
2022/04/14 00:37:40;;;;;;;28.85;11.73;;;;;;;11.70;77.25;102079.75;5060940;28;20337;-79
2022/04/14 00:40:05;;;;;;;24.58;11.10;;;;;;;11.67;77.16;102077.19;5042454;28;20067;-79
2022/04/14 00:42:31;;;;;;;27.83;12.13;;;;;;;11.66;77.36;102075.44;5060766;28;20039;-79
2022/04/14 00:44:56;;;;;;;25.38;11.70;;;;;;;11.64;77.26;102066.75;5077073;28;20044;-79
2022/04/14 00:47:22;;;;;;;22.85;10.05;;;;;;;11.62;77.22;102068.56;5077896;28;20040;-79
2022/04/14 00:49:48;;;;;;;21.80;9.93;;;;;;;11.60;77.17;102068.59;5059586;28;20491;-79
2022/04/14 00:52:15;;;;;;;18.67;9.45;;;;;;;11.59;77.13;102071.25;5043622;28;20098;-79
2022/04/14 00:54:40;;;;;;;15.88;8.10;;;;;;;11.56;77.13;102072.22;5059643;28;20056;-79
2022/04/14 00:57:06;;;;;;;14.10;8.05;;;;;;;11.53;77.08;102070.53;5043454;28;20236;-79
2022/04/14 00:59:32;;;;;;;15.13;8.00;;;;;;;11.51;77.03;102072.34;5059711;28;20059;-79
2022/04/14 01:04:52;;;;;;;15.35;7.28;;;;;;;11.46;77.16;102075.94;5076547;28;20036;-79
2022/04/14 01:07:18;;;;;;;11.68;6.47;;;;;;;11.43;77.21;102076.06;5062804;28;20063;-79
2022/04/14 01:09:45;;;;;;;9.00;5.80;;;;;;;11.42;77.03;102071.69;5065266;28;20316;-79
2022/04/14 01:12:10;;;;;;;8.65;5.97;;;;;;;11.41;77.05;102085.72;5061622;28;20273;-79
2022/04/14 01:14:37;;;;;;;10.75;6.03;;;;;;;11.38;77.03;102080.53;5063495;28;20328;-79
2022/04/14 01:17:07;;;;;;;10.10;6.05;;;;;;;11.34;77.12;102083.22;5081781;28;20052;-79
2022/04/14 01:19:34;;;;;;;8.98;5.85;;;;;;;11.32;76.84;102085.03;5046766;28;20289;-79
2022/04/14 01:22:02;;;;;;;10.98;6.30;;;;;;;11.29;76.88;102079.84;5063975;28;20388;-79
2022/04/14 01:24:29;;;;;;;9.60;5.40;;;;;;;11.27;77.15;102083.41;5081751;28;20394;-80
2022/04/14 01:26:56;;;;;;;7.35;5.40;;;;;;;11.23;77.11;102090.50;5081872;28;20036;-79
2022/04/14 01:29:22;;;;;;;8.07;5.65;;;;;;;11.21;77.06;102089.66;5080976;28;20127;-79
2022/04/14 01:31:49;;;;;;;8.25;5.43;;;;;;;11.19;76.96;102093.22;5081564;28;20385;-79
2022/04/14 01:34:15;;;;;;;7.88;5.30;;;;;;;11.16;76.98;102095.91;5068711;28;20043;-79
2022/04/14 01:36:40;;;;;;;6.90;5.68;;;;;;;11.13;76.94;102094.22;5063989;28;20107;-79
2022/04/14 01:39:08;;;;;;;6.75;5.88;;;;;;;11.10;76.96;102095.16;5063330;28;20032;-79
2022/04/14 01:41:34;;;;;;;6.60;5.10;;;;;;;11.07;76.84;102095.22;5063568;28;20044;-79
2022/04/14 01:43:59;;;;;;;9.27;5.72;;;;;;;11.05;77.03;102094.41;5081431;28;20024;-80
2022/04/14 01:46:25;;;;;;;10.68;7.13;;;;;;;11.03;77.11;102090.09;5041985;28;20119;-79
2022/04/14 01:48:50;;;;;;;7.88;5.72;;;;;;;11.00;76.93;102093.63;5043574;28;20037;-80
2022/04/14 01:51:15;;;;;;;9.63;5.35;;;;;;;10.98;77.14;102095.44;5062031;28;20106;-79
2022/04/14 01:53:41;;;;;;;10.40;5.82;;;;;;;10.96;77.08;102097.22;5063293;28;20052;-79
2022/04/14 01:56:06;;;;;;;8.30;5.93;;;;;;;10.94;76.93;102096.41;5063331;28;20374;-79
2022/04/14 01:58:31;;;;;;;6.93;5.32;;;;;;;10.91;77.03;102097.34;5046562;28;20056;-80
2022/04/14 02:00:57;;;;;;;8.15;5.57;;;;;;;10.89;77.02;102099.09;5063063;28;20043;-80
2022/04/14 02:03:22;;;;;;;8.30;5.43;;;;;;;10.88;77.35;102101.78;5081239;28;20043;-79
2022/04/14 02:05:48;;;;;;;9.82;5.97;;;;;;;10.85;77.28;102102.69;5030131;28;20054;-79
2022/04/14 02:08:13;;;;;;;11.85;5.72;;;;;;;10.83;77.14;102107.13;5040076;28;20056;-79
2022/04/14 02:10:38;;;;;;;8.63;5.97;;;;;;;10.82;77.15;102107.16;5026992;28;20249;-79
2022/04/14 02:13:04;;;;;;;12.07;6.18;;;;;;;10.80;77.25;102114.19;5043120;28;20064;-79
2022/04/14 02:15:29;;;;;;;9.35;5.90;;;;;;;10.77;77.41;102107.25;5043952;28;20048;-79
2022/04/14 02:17:55;;;;;;;6.47;5.25;;;;;;;10.76;77.17;102102.91;5029713;28;20081;-80
2022/04/14 02:20:20;;;;;;;9.45;6.15;;;;;;;10.72;77.23;102102.09;5045576;28;20068;-79
2022/04/14 02:22:46;;;;;;;8.73;5.53;;;;;;;10.70;77.12;102106.50;5042997;28;20362;-79
2022/04/14 02:25:11;;;;;;;10.73;5.68;;;;;;;10.69;77.05;102098.69;5047434;28;20049;-80
2022/04/14 02:27:37;;;;;;;9.70;5.80;;;;;;;10.66;77.25;102099.63;5074800;28;20036;-79
2022/04/14 02:30:03;;;;;;;8.23;5.78;;;;;;;10.64;77.27;102109.28;5062274;28;20351;-81
2022/04/14 02:32:29;;;;;;;8.30;5.60;;;;;;;10.62;76.91;102100.56;5061870;28;20051;-82
2022/04/14 02:34:54;;;;;;;5.57;5.07;;;;;;;10.61;77.30;102108.47;5074975;28;20032;-82
2022/04/14 02:37:19;;;;;;;7.00;5.40;;;;;;;10.57;77.34;102102.44;5026907;28;20037;-81
2022/04/14 02:39:45;;;;;;;11.98;6.47;;;;;;;10.56;77.44;102100.69;5050867;28;20101;-82
2022/04/14 02:42:10;;;;;;;8.80;5.75;;;;;;;10.54;77.19;102102.50;5079401;28;20055;-82
2022/04/14 02:44:36;;;;;;;7.40;5.90;;;;;;;10.52;77.18;102101.66;5061299;28;20032;-82
2022/04/14 02:47:01;;;;;;;6.47;5.80;;;;;;;10.49;77.00;102105.19;5044666;28;20031;-81
2022/04/14 02:49:27;;;;;;;11.25;6.38;;;;;;;10.48;77.18;102105.25;5061085;28;20044;-81
2022/04/14 02:51:52;;;;;;;8.60;5.80;;;;;;;10.45;77.33;102097.44;5061478;28;20220;-81
2022/04/14 02:54:17;;;;;;;8.18;5.78;;;;;;;10.42;77.09;102100.97;5061798;28;20040;-82
2022/04/14 02:56:43;;;;;;;7.35;5.70;;;;;;;10.40;77.42;102101.91;5062666;28;20028;-82
2022/04/14 02:59:08;;;;;;;8.57;5.72;;;;;;;10.37;77.30;102102.84;5061836;28;20307;-82
2022/04/14 03:01:34;;;;;;;8.88;5.13;;;;;;;10.35;77.24;102095.00;5080306;28;20059;-82
2022/04/14 03:04:02;;;;;;;7.95;6.00;;;;;;;10.35;77.27;102094.13;5062232;28;20039;-82
2022/04/14 03:06:28;;;;;;;8.48;5.93;;;;;;;10.33;77.28;102099.41;5062233;28;20024;-81
2022/04/14 03:08:53;;;;;;;9.02;6.43;;;;;;;10.30;77.45;102095.97;5045292;28;20328;-81
2022/04/14 03:11:18;;;;;;;7.75;6.13;;;;;;;10.29;77.42;102102.06;5080140;28;20320;-81
2022/04/14 03:13:44;;;;;;;8.43;5.82;;;;;;;10.28;77.52;102108.22;5061934;28;20060;-82
2022/04/14 03:16:09;;;;;;;17.38;7.22;;;;;;;10.25;77.34;102109.13;5061977;28;20071;-82
2022/04/14 03:18:35;;;;;;;12.50;6.95;;;;;;;10.24;77.59;102103.91;5061646;28;20389;-82
2022/04/14 03:21:01;;;;;;;11.13;6.88;;;;;;;10.23;77.45;102108.28;5060837;28;20036;-82
2022/04/14 03:23:27;;;;;;;11.82;6.72;;;;;;;10.21;77.38;102104.84;5076577;28;20064;-82
2022/04/14 03:25:52;;;;;;;11.73;7.10;;;;;;;10.21;77.22;102110.09;5076601;28;20264;-81
2022/04/14 03:28:18;;;;;;;10.20;6.22;;;;;;;10.19;77.62;102104.00;5043932;28;20336;-81
2022/04/14 03:30:43;;;;;;;11.77;7.22;;;;;;;10.17;77.51;102103.19;5057476;28;20059;-82
2022/04/14 03:33:09;;;;;;;8.95;6.88;;;;;;;10.14;77.37;102114.56;5061640;28;20082;-81
2022/04/14 03:35:34;;;;;;;12.05;7.68;;;;;;;10.12;77.69;102107.63;5045681;28;20205;-82
2022/04/14 03:37:59;;;;;;;13.45;7.18;;;;;;;10.10;77.52;102114.66;5062165;28;20074;-82
2022/04/14 03:40:25;;;;;;;10.60;7.25;;;;;;;10.08;77.56;102125.16;5079551;28;20051;-82
2022/04/14 03:42:50;;;;;;;13.27;7.30;;;;;;;10.05;77.81;102130.44;5081113;28;20078;-82
2022/04/14 03:45:16;;;;;;;12.38;7.80;;;;;;;10.04;77.68;102133.97;5049155;28;20040;-82
2022/04/14 03:47:41;;;;;;;10.35;6.85;;;;;;;10.04;77.86;102125.22;5075197;28;20072;-81
2022/04/14 03:50:07;;;;;;;13.25;7.57;;;;;;;10.03;77.90;102118.28;5070684;28;20036;-81
2022/04/14 03:52:32;;;;;;;14.40;8.02;;;;;;;10.02;77.73;102130.47;5054843;28;20031;-81
2022/04/14 03:54:58;;;;;;;16.02;8.55;;;;;;;9.98;77.72;102134.91;5042795;28;20067;-81
2022/04/14 03:57:24;;;;;;;14.55;7.18;;;;;;;9.97;78.03;102124.50;5064871;28;20027;-81
2022/04/14 03:59:50;;;;;;;17.10;8.27;;;;;;;9.97;77.83;102137.56;5065618;28;20101;-81
2022/04/14 04:02:15;;;;;;;16.80;8.35;;;;;;;9.95;77.94;102136.72;5083173;28;20051;-81
2022/04/14 04:04:40;;;;;;;15.55;8.27;;;;;;;9.94;77.88;102133.25;5083455;28;20236;-81
2022/04/14 04:07:06;;;;;;;15.30;8.38;;;;;;;9.93;77.96;102136.75;5048389;28;20116;-81
2022/04/14 04:09:34;;;;;;;17.65;8.80;;;;;;;9.92;78.02;102135.03;5083406;28;20516;-81
2022/04/14 04:12:00;;;;;;;19.40;9.07;;;;;;;9.91;78.45;102128.06;5044626;28;20305;-81
2022/04/14 04:14:26;;;;;;;14.35;9.10;;;;;;;9.90;78.03;102128.97;5045128;28;20289;-81
2022/04/14 04:16:51;;;;;;;15.77;9.25;;;;;;;9.88;78.16;102128.13;5064449;28;20032;-81
2022/04/14 04:19:17;;;;;;;17.88;9.35;;;;;;;9.87;78.18;102123.75;5065288;28;20228;-81
2022/04/14 04:21:42;;;;;;;16.33;9.50;;;;;;;9.88;78.13;102124.66;5065489;28;20051;-82
2022/04/14 04:24:08;;;;;;;17.63;10.18;;;;;;;9.85;78.09;102114.22;5058590;28;20361;-83
2022/04/14 04:26:33;;;;;;;17.00;9.45;;;;;;;9.84;78.32;102129.06;5063190;28;20040;-80
2022/04/14 04:28:59;;;;;;;14.70;8.98;;;;;;;9.82;78.22;102128.22;5062919;28;20084;-80
2022/04/14 04:31:24;;;;;;;16.80;10.15;;;;;;;9.79;78.30;102131.75;5068735;28;20293;-80
2022/04/14 04:33:51;;;;;;;16.50;9.63;;;;;;;9.78;78.33;102134.38;5055325;28;20363;-80
2022/04/14 04:36:20;;;;;;;16.90;9.40;;;;;;;9.77;78.30;102135.28;5044115;28;20072;-80
2022/04/14 04:38:45;;;;;;;15.30;9.40;;;;;;;9.74;78.29;102138.81;5062237;28;20055;-80
2022/04/14 04:41:10;;;;;;;16.52;8.95;;;;;;;9.74;78.07;102148.41;5025644;28;20055;-80
2022/04/14 04:43:36;;;;;;;17.13;10.25;;;;;;;9.73;78.22;102150.19;5082166;28;20094;-80
2022/04/14 04:46:02;;;;;;;14.45;9.02;;;;;;;9.72;78.03;102148.44;5012560;28;20029;-80
2022/04/14 04:48:27;;;;;;;18.25;8.85;;;;;;;9.71;77.98;102151.06;5057067;28;20239;-80
2022/04/14 04:50:53;;;;;;;17.00;9.60;;;;;;;9.71;78.14;102151.06;5029300;28;20059;-80
2022/04/14 04:53:18;;;;;;;17.20;9.27;;;;;;;9.69;78.19;102151.09;5062466;28;20033;-81
2022/04/14 04:55:43;;;;;;;14.40;8.90;;;;;;;9.69;78.13;102147.63;5058783;28;20039;-81
2022/04/14 04:58:09;;;;;;;11.57;7.78;;;;;;;9.69;77.93;102155.47;5060174;28;20070;-80
2022/04/14 05:00:35;;;;;;;12.93;8.35;;;;;;;9.69;77.94;102150.25;5042916;28;20039;-80
2022/04/14 05:03:00;;;;;;;15.90;8.80;;;;;;;9.69;78.16;102156.31;5064831;28;20025;-80
2022/04/14 05:05:25;;;;;;;11.38;8.38;;;;;;;9.68;78.00;102154.63;5058804;28;20044;-81
2022/04/14 05:07:51;;;;;;;12.63;9.07;;;;;;;9.68;78.13;102164.19;5042550;28;20039;-81
2022/04/14 05:10:17;;;;;;;16.08;9.52;;;;;;;9.67;78.19;102168.56;5059007;28;20040;-80
2022/04/14 05:12:42;;;;;;;15.43;9.45;;;;;;;9.69;78.41;102169.41;5059565;28;20086;-80
2022/04/14 05:15:08;;;;;;;20.95;8.65;;;;;;;9.69;78.39;102171.16;5076228;28;20085;-80
2022/04/14 05:17:34;;;;;;;12.68;8.73;;;;;;;9.69;78.24;102168.56;5047845;28;20082;-80
2022/04/14 05:19:59;;;;;;;16.63;9.50;;;;;;;9.70;78.40;102168.53;5035400;28;20029;-81
2022/04/14 05:22:24;;;;;;;18.33;10.32;;;;;;;9.70;78.65;102176.38;5042089;28;20033;-80
2022/04/14 05:24:50;;;;;;;17.35;8.98;;;;;;;9.72;78.80;102176.34;5069970;28;20024;-80
2022/04/14 05:27:15;;;;;;;17.85;9.63;;;;;;;9.72;78.82;102181.59;5062137;28;20040;-80
2022/04/14 05:29:41;;;;;;;15.80;9.68;;;;;;;9.72;79.20;102177.22;5025038;28;20047;-80
2022/04/14 05:32:07;;;;;;;14.43;9.60;;;;;;;9.73;79.73;102183.31;5062865;28;20035;-80
2022/04/14 05:34:33;;;;;;;14.13;10.00;;;;;;;9.72;79.43;102177.22;5079487;28;20190;-80
2022/04/14 05:36:58;;;;;;;15.52;9.75;;;;;;;9.74;79.28;102177.19;5076335;28;20043;-80
2022/04/14 05:39:24;;;;;;;13.40;9.60;;;;;;;9.74;79.50;102178.06;5058352;28;20221;-80
2022/04/14 05:41:49;;;;;;;12.55;9.80;;;;;;;9.74;79.63;102185.91;5058805;28;20036;-80
2022/04/14 05:44:16;;;;;;;16.17;9.98;;;;;;;9.76;79.45;102188.50;5041912;28;20362;-80
2022/04/14 05:46:42;;;;;;;18.20;9.52;;;;;;;9.76;79.47;102186.72;5075899;28;20232;-80
2022/04/14 05:49:07;;;;;;;16.58;9.93;;;;;;;9.78;79.51;102194.56;5075737;28;20032;-80
2022/04/14 05:51:32;;;;;;;17.42;9.85;;;;;;;9.79;79.83;102186.69;5058616;28;20036;-80
2022/04/14 05:53:58;;;;;;;17.45;10.63;;;;;;;9.79;79.85;102188.47;5076884;28;20040;-80
2022/04/14 05:56:23;;;;;;;16.30;10.35;;;;;;;9.80;80.07;102183.19;5076184;28;20284;-80
2022/04/14 05:58:49;;;;;;;15.85;10.00;;;;;;;9.82;79.98;102192.75;5077382;28;20397;-80
2022/04/14 06:01:14;;;;;;;12.80;8.98;;;;;;;9.82;79.72;102193.63;5076066;28;20067;-82
2022/04/14 06:03:40;;;;;;;15.30;10.25;;;;;;;9.84;79.58;102191.88;5058751;28;20036;-82
2022/04/14 06:06:06;;;;;;;16.55;10.10;;;;;;;9.86;79.47;102189.19;5076293;28;20032;-81
2022/04/14 06:08:31;;;;;;;13.73;9.80;;;;;;;9.89;79.45;102194.41;5057921;28;20609;-81
2022/04/14 06:10:57;;;;;;;18.65;10.43;;;;;;;9.89;79.55;102199.63;5043723;28;20044;-82
2022/04/14 06:13:23;;;;;;;12.77;9.93;;;;;;;9.89;79.63;102197.88;5061946;28;20059;-81
2022/04/14 06:15:48;;;;;;;16.08;10.27;;;;;;;9.90;78.99;102199.59;5069703;28;20040;-82
2022/04/14 06:18:13;;;;;;;20.63;11.73;;;;;;;9.91;78.93;102197.84;5052273;28;20544;-82
2022/04/14 06:20:39;;;;;;;14.18;10.13;;;;;;;9.90;79.61;102196.13;5076683;28;20046;-81
2022/04/14 06:23:04;;;;;;;19.55;11.43;;;;;;;9.92;79.66;102202.22;5058930;28;20362;-82
2022/04/14 06:25:30;;;;;;;15.63;10.48;;;;;;;9.92;80.21;102203.06;5080227;28;20044;-81
2022/04/14 06:27:56;;;;;;;19.67;12.07;;;;;;;9.93;80.70;102198.69;5073983;28;20081;-81
2022/04/14 06:30:22;;;;;;;19.15;11.43;;;;;;;9.94;81.08;102201.28;5057729;28;20210;-81
2022/04/14 06:32:58;;;;;;;19.90;12.27;;;;;;;9.95;82.00;102194.28;5051923;28;20029;-81
2022/04/14 06:35:24;;;;;;;20.10;11.77;;;;;;;9.96;82.86;102203.88;5033772;28;20048;-81
2022/04/14 06:37:49;;;;;;;19.17;10.95;;;;;;;9.97;82.59;102205.63;5041724;28;20033;-81
2022/04/14 06:40:15;;;;;;;20.13;13.43;;;;;;;9.98;82.76;102204.72;5056406;28;20040;-82
2022/04/14 06:42:40;;;;;;;21.15;12.73;;;;;;;9.99;82.88;102211.69;5057316;28;20060;-82
2022/04/14 06:45:06;;;;;;;16.15;10.45;;;;;;;10.01;83.15;102206.44;5049418;28;20033;-82
2022/04/14 06:47:32;;;;;;;15.35;10.48;;;;;;;10.03;82.89;102209.88;5044307;28;20240;-81
2022/04/14 06:49:57;;;;;;;19.38;12.20;;;;;;;10.05;82.99;102205.47;5044372;28;20045;-81
2022/04/14 06:52:23;;;;;;;12.90;10.55;;;;;;;10.05;83.63;102206.34;5042563;28;20094;-82
2022/04/14 06:54:49;;;;;;;11.85;9.85;;;;;;;10.07;83.06;102209.78;5033584;28;20301;-82
2022/04/14 06:57:14;;;;;;;24.38;13.40;;;;;;;10.09;82.87;102225.47;5074386;28;20036;-81
2022/04/14 06:59:40;;;;;;;17.55;11.93;;;;;;;10.10;83.16;102221.97;5040188;28;20104;-81
2022/04/14 07:02:06;;;;;;;21.00;11.63;;;;;;;10.11;83.03;102218.47;5055247;28;20039;-81
2022/04/14 07:04:31;;;;;;;15.93;10.73;;;;;;;10.14;83.34;102223.66;5057254;28;20358;-81
2022/04/14 07:06:57;;;;;;;19.33;11.77;;;;;;;10.18;84.00;102220.09;5031878;28;20029;-82
2022/04/14 07:09:24;;;;;;;19.90;14.05;;;;;;;10.19;84.99;102229.69;5070948;28;20033;-81
2022/04/14 07:11:50;;;;;;;19.13;12.18;;;;;;;10.19;84.99;102238.38;5057421;28;20378;-81
2022/04/14 07:14:16;;;;;;;23.70;13.00;;;;;;;10.24;86.64;102240.94;5073449;28;20146;-82
2022/04/14 07:16:42;;;;;;;12.40;10.77;;;;;;;10.28;85.52;102233.91;5060851;28;20067;-81
2022/04/14 07:19:07;;;;;;;20.52;12.10;;;;;;;10.29;85.58;102233.84;5082448;28;20048;-82
2022/04/14 07:21:33;;;;;;;23.25;14.30;;;;;;;10.35;85.52;102240.75;5083208;28;20251;-81
2022/04/14 07:23:58;;;;;;;23.38;14.02;;;;;;;10.38;86.67;102235.47;5065113;28;20122;-81
2022/04/14 07:26:23;;;;;;;24.52;13.48;;;;;;;10.42;86.58;102234.53;5031130;28;20069;-81
2022/04/14 07:28:49;;;;;;;29.77;13.95;;;;;;;10.46;86.48;102231.00;5048677;28;20043;-81
2022/04/14 07:31:14;;;;;;;24.40;14.45;;;;;;;10.49;86.48;102232.69;5046908;28;20032;-82
2022/04/14 07:33:41;;;;;;;27.70;14.73;;;;;;;10.53;87.33;102232.59;5048309;28;20032;-81
2022/04/14 07:36:07;;;;;;;22.10;12.80;;;;;;;10.59;87.41;102235.97;5065325;28;20048;-81
2022/04/14 07:38:32;;;;;;;19.35;13.07;;;;;;;10.64;87.55;102231.53;5048223;28;20036;-82
2022/04/14 07:40:57;;;;;;;17.08;12.73;;;;;;;10.68;86.92;102239.31;5036052;28;20032;-81
2022/04/14 07:43:23;;;;;;;18.98;13.23;;;;;;;10.73;87.02;102242.72;5082590;28;20118;-82
2022/04/14 07:45:49;;;;;;;25.05;12.70;;;;;;;10.75;87.24;102240.94;5046248;28;20082;-81
2022/04/14 07:48:16;;;;;;;16.65;11.13;;;;;;;10.80;87.01;102248.69;5074975;28;20024;-82
2022/04/14 07:50:41;;;;;;;15.05;10.77;;;;;;;10.83;86.42;102250.41;5048323;28;20028;-82
2022/04/14 07:53:07;;;;;;;20.42;12.27;;;;;;;10.87;85.80;102252.91;5065062;28;20048;-82
2022/04/14 07:55:34;;;;;;;20.27;13.82;;;;;;;10.91;86.49;102254.59;5064467;28;20269;-81
2022/04/14 07:58:06;;;;;;;24.27;14.13;;;;;;;10.97;86.57;102256.25;5082662;28;20036;-81
2022/04/14 08:00:32;;;;;;;19.13;12.07;;;;;;;11.02;86.94;102245.66;5052138;28;20240;-81
2022/04/14 08:03:00;;;;;;;22.30;13.70;;;;;;;11.07;86.65;102249.03;5062907;28;20040;-81
2022/04/14 08:05:32;;;;;;;18.98;12.95;;;;;;;11.14;86.36;102242.78;5082418;28;20078;-81
2022/04/14 08:07:57;;;;;;;20.08;12.30;;;;;;;11.17;85.84;102247.97;5083012;28;20028;-81
2022/04/14 08:10:23;;;;;;;19.83;12.55;;;;;;;11.19;85.27;102243.56;5054237;28;20041;-82
2022/04/14 08:12:49;;;;;;;17.05;12.63;;;;;;;11.21;85.02;102239.13;5063166;28;20059;-81
2022/04/14 08:15:15;;;;;;;31.48;14.38;;;;;;;11.27;86.30;102246.00;5081010;28;20443;-82
2022/04/14 08:17:42;;;;;;;23.25;14.13;;;;;;;11.34;86.21;102243.22;5063325;28;20032;-81
2022/04/14 08:20:09;;;;;;;27.73;13.88;;;;;;;11.40;86.52;102242.22;5065304;28;20027;-81
2022/04/14 08:22:49;;;;;;;21.27;13.75;;;;;;;11.44;86.50;102243.91;5079407;28;20044;-81
2022/04/14 08:25:38;;;;;;;22.92;13.35;;;;;;;11.51;86.51;102249.84;5074741;28;20024;-81
2022/04/14 08:28:05;;;;;;;24.67;13.55;;;;;;;11.55;86.96;102242.78;5078840;28;20343;-81
2022/04/14 08:30:33;;;;;;;28.48;14.45;;;;;;;11.59;86.84;102247.06;5060376;28;20041;-81
2022/04/14 08:33:00;;;;;;;21.85;14.05;;;;;;;11.62;86.92;102239.97;5081483;28;20067;-81
2022/04/14 08:35:26;;;;;;;23.40;15.10;;;;;;;11.68;86.70;102241.63;5081049;28;20048;-81
2022/04/14 08:37:51;;;;;;;23.15;14.88;;;;;;;11.72;86.62;102245.91;5079502;28;20040;-81
2022/04/14 08:40:19;;;;;;;28.80;13.93;;;;;;;11.75;86.40;102243.22;5081105;28;20328;-81
2022/04/14 08:43:00;;;;;;;25.27;13.68;;;;;;;11.78;86.11;102237.88;5063220;28;20028;-81
2022/04/14 08:45:29;;;;;;;16.92;11.68;;;;;;;11.82;86.06;102225.53;5082351;28;20439;-82
2022/04/14 08:47:58;;;;;;;14.40;11.75;;;;;;;11.85;85.71;102222.84;5064268;28;20073;-81
2022/04/14 08:50:25;;;;;;;19.05;12.18;;;;;;;11.91;85.80;102217.47;5064032;28;20040;-82
2022/04/14 08:52:51;;;;;;;20.17;11.60;;;;;;;11.96;85.86;102220.00;5062774;28;20050;-81
2022/04/14 08:55:17;;;;;;;20.20;11.80;;;;;;;11.99;85.25;102210.28;5062679;28;20291;-82
2022/04/14 08:57:43;;;;;;;16.45;10.40;;;;;;;12.04;85.26;102207.53;5062499;28;20032;-82
2022/04/14 09:00:10;;;;;;;19.27;11.63;;;;;;;12.11;85.26;102219.59;5051529;28;20044;-81
2022/04/14 09:02:37;;;;;;;17.95;11.32;;;;;;;12.18;85.41;102220.31;5078320;28;20050;-81
2022/04/14 09:05:04;;;;;;;19.75;10.93;;;;;;;12.24;85.48;102215.78;5062168;28;20328;-82
2022/04/14 09:07:30;;;;;;;14.20;9.77;;;;;;;12.32;85.70;102214.72;5075814;28;20062;-82
2022/04/14 09:09:55;;;;;;;14.05;8.80;;;;;;;12.38;84.56;102206.69;5062232;28;20056;-81
2022/04/14 09:12:21;;;;;;;10.20;7.55;;;;;;;12.42;84.08;102217.03;5028394;28;20049;-81
2022/04/14 09:14:46;;;;;;;9.63;7.60;;;;;;;12.49;83.99;102217.75;5061724;28;20232;-81
2022/04/14 09:17:12;;;;;;;8.23;6.97;;;;;;;12.55;83.55;102221.97;5061186;28;20244;-82
2022/04/14 09:19:38;;;;;;;8.23;6.88;;;;;;;12.59;83.88;102227.13;5079581;28;20051;-81
2022/04/14 09:22:10;;;;;;;11.70;6.53;;;;;;;12.65;83.56;102239.25;5061645;28;20016;-81
2022/04/14 09:24:48;;;;;;;10.45;6.70;;;;;;;12.75;83.19;102240.72;5079452;28;20052;-81
2022/04/14 09:27:25;;;;;;;11.15;6.68;;;;;;;12.80;82.84;102243.22;5060640;28;20040;-81
2022/04/14 09:29:52;;;;;;;10.32;6.28;;;;;;;12.84;82.45;102250.97;5078799;28;20377;-81
2022/04/14 09:32:35;;;;;;;10.85;7.03;;;;;;;12.90;82.48;102252.56;5043555;28;20033;-81
2022/04/14 09:35:14;;;;;;;8.55;6.22;;;;;;;12.99;82.03;102256.72;5045761;28;20067;-81
2022/04/14 09:37:40;;;;;;;12.02;6.40;;;;;;;13.08;81.32;102261.72;5059463;28;20097;-81
2022/04/14 09:40:11;;;;;;;8.57;5.53;;;;;;;13.15;80.85;102265.00;5060851;28;20068;-81
2022/04/14 09:42:38;;;;;;;11.48;5.78;;;;;;;13.17;80.53;102261.44;5043379;28;20096;-82
2022/04/14 09:45:25;;;;;;;10.65;6.47;;;;;;;13.20;80.84;102269.22;5079642;28;20013;-82
2022/04/14 09:47:52;;;;;;;13.68;7.22;;;;;;;13.27;80.75;102267.28;5061219;28;20059;-81
2022/04/14 09:50:40;;;;;;;11.18;6.25;;;;;;;13.33;81.27;102271.53;5061188;28;20060;-81
2022/04/14 09:53:13;;;;;;;9.93;6.53;;;;;;;13.40;81.33;102270.47;5079051;28;20374;-82
2022/04/14 09:55:40;;;;;;;10.27;5.38;;;;;;;13.47;80.23;102272.00;5079071;28;20059;-82
2022/04/14 09:58:12;;;;;;;5.20;4.03;;;;;;;13.50;79.83;102268.41;5061727;28;20036;-81
2022/04/14 10:00:45;;;;;;;8.30;3.60;;;;;;;13.53;78.04;102268.31;5079448;28;20025;-82
2022/04/14 10:03:22;;;;;;;10.68;5.18;;;;;;;13.59;78.55;102274.25;5078906;28;20052;-82
2022/04/14 10:05:50;;;;;;;6.65;5.80;;;;;;;13.64;78.97;102276.75;5061026;28;20107;-82
2022/04/14 10:08:17;;;;;;;11.13;6.70;;;;;;;13.70;79.20;102271.31;5079032;28;20040;-81
2022/04/14 10:10:45;;;;;;;11.60;7.10;;;;;;;13.78;79.88;102266.66;5061460;28;20040;-81
2022/04/14 10:13:16;;;;;;;15.10;8.35;;;;;;;13.90;79.77;102261.91;5074145;28;20115;-82
2022/04/14 10:15:46;;;;;;;11.10;7.45;;;;;;;13.94;79.41;102264.41;5061175;28;20040;-82
2022/04/14 10:18:13;;;;;;;9.73;6.80;;;;;;;13.98;78.92;102258.13;5065214;28;20040;-82
2022/04/14 10:20:41;;;;;;;9.73;6.95;;;;;;;14.06;79.70;102260.53;5031189;28;20017;-82
2022/04/14 10:23:11;;;;;;;10.85;7.45;;;;;;;14.09;78.20;102268.31;5058897;28;20348;-82
2022/04/14 10:25:38;;;;;;;12.05;7.43;;;;;;;14.09;78.14;102268.31;5058074;28;20047;-81
2022/04/14 10:28:08;;;;;;;11.98;7.70;;;;;;;14.12;78.49;102262.09;5054347;28;20043;-82
2022/04/14 10:30:34;;;;;;;11.15;7.03;;;;;;;14.12;78.26;102268.22;5052132;28;20040;-81
2022/04/14 10:32:59;;;;;;;10.63;5.90;;;;;;;14.13;76.47;102269.06;5040763;28;20306;-81
2022/04/14 10:35:30;;;;;;;10.60;4.90;;;;;;;14.10;76.90;102269.16;5040523;28;20041;-81
2022/04/14 10:38:09;;;;;;;9.45;4.97;;;;;;;14.09;76.04;102273.56;5022807;28;20103;-82
2022/04/14 10:40:36;;;;;;;6.75;5.15;;;;;;;14.09;75.95;102273.56;5041550;28;20037;-81
2022/04/14 10:43:06;;;;;;;5.60;4.30;;;;;;;14.08;75.90;102278.88;5054126;28;20028;-81
2022/04/14 10:45:47;;;;;;;8.10;4.03;;;;;;;14.06;75.34;102278.06;5059067;28;20035;-82
2022/04/14 10:48:34;;;;;;;4.65;3.53;;;;;;;14.06;75.07;102275.44;5041315;28;20044;-82
2022/04/14 10:51:09;;;;;;;8.95;5.03;;;;;;;14.11;75.34;102274.38;5041174;28;20209;-82
2022/04/14 10:53:48;;;;;;;7.60;4.70;;;;;;;14.13;75.34;102271.69;5043422;28;20035;-81
2022/04/14 10:56:33;;;;;;;;;;;;;;;14.18;75.67;102272.41;5065997;28;20103;-81
2022/04/14 10:58:59;;;;;;;6.68;4.65;;;;;;;14.20;75.18;102276.72;5059036;28;19920;-81
2022/04/14 11:01:50;;;;;;;6.28;4.50;;;;;;;14.28;75.63;102276.47;5048471;28;20111;-82
2022/04/14 11:04:23;;;;;;;8.07;4.80;;;;;;;14.37;75.91;102272.66;5061612;28;20029;-81
2022/04/14 11:06:51;;;;;;;10.82;5.18;;;;;;;14.44;75.02;102283.84;5059477;28;20039;-81
2022/04/14 11:09:42;;;;;;;9.55;4.35;;;;;;;14.53;75.10;102280.91;5041197;28;20072;-82
2022/04/14 11:12:12;;;;;;;6.28;4.00;;;;;;;14.62;75.07;102277.97;5060866;28;20349;-81
2022/04/14 11:14:48;;;;;;;6.30;4.05;;;;;;;14.75;74.29;102275.78;5067311;28;20040;-82
2022/04/14 11:17:37;;;;;;;6.00;3.47;;;;;;;14.83;73.41;102286.91;5086853;28;20340;-81
2022/04/14 11:20:16;;;;;;;4.90;2.90;;;;;;;14.81;73.05;102283.47;5064931;28;20028;-82
2022/04/14 11:23:03;;;;;;;8.07;3.35;;;;;;;14.82;72.57;102286.97;5069276;28;20017;-82